METAR Data
IDs: Format: Raw Decoded Include TAF

Data at: 0259 UTC 25 Feb 2021

ETHC 250220Z AUTO 15003KT 9999 // ////// 05/05 Q1026 ///